Time;durP1;ratioP1;P1;durP2;ratioP2;P2;SDS_P1;SDS_P2;PMS_P1;PMS_P2;Temp;Humidity;BMP_temperature;BMP_pressure;BME280_temperature;BME280_humidity;BME280_pressure;Samples;Min_cycle;Max_cycle;Signal;HPM_P1;HPM_P2
2023/06/03 00:01:59;;;;;;;7.13;3.30;;;13.70;90.70;;;;;;4967026;28;20467;-73
2023/06/03 00:04:28;;;;;;;8.03;3.50;;;13.80;90.30;;;;;;4968509;28;20412;-74
2023/06/03 00:06:54;;;;;;;5.97;3.80;;;13.80;90.00;;;;;;4967022;28;20662;-74
2023/06/03 00:09:19;;;;;;;7.70;3.30;;;13.80;89.70;;;;;;4983220;28;20475;-73
2023/06/03 00:11:45;;;;;;;13.40;4.17;;;13.80;90.10;;;;;;4968114;28;20206;-73
2023/06/03 00:14:11;;;;;;;16.07;3.93;;;13.80;90.20;;;;;;4966866;29;20199;-73
2023/06/03 00:16:36;;;;;;;5.53;2.90;;;13.80;90.10;;;;;;4968446;29;20231;-74
2023/06/03 00:19:02;;;;;;;15.77;4.53;;;13.70;90.20;;;;;;4967436;29;20671;-76
2023/06/03 00:21:28;;;;;;;6.47;3.60;;;13.70;90.60;;;;;;4973862;28;20267;-73
2023/06/03 00:23:54;;;;;;;10.33;3.27;;;13.60;90.70;;;;;;4968632;28;20416;-73
2023/06/03 00:26:22;;;;;;;4.97;3.03;;;13.60;91.10;;;;;;4967132;28;20180;-73
2023/06/03 00:28:53;;;;;;;4.63;3.47;;;13.60;91.30;;;;;;4965024;28;20582;-73
2023/06/03 00:31:19;;;;;;;5.43;2.67;;;13.50;91.70;;;;;;4964800;28;20423;-73
2023/06/03 00:33:45;;;;;;;7.57;2.90;;;13.50;91.90;;;;;;4967662;28;20411;-73
2023/06/03 00:36:11;;;;;;;8.47;2.77;;;13.50;92.20;;;;;;4968288;29;20421;-74
2023/06/03 00:38:39;;;;;;;6.80;3.27;;;13.40;92.10;;;;;;4969915;28;20199;-75
2023/06/03 00:41:05;;;;;;;7.30;4.10;;;13.40;92.50;;;;;;4967695;28;20504;-73
2023/06/03 00:43:32;;;;;;;10.13;5.40;;;13.40;92.80;;;;;;4964903;29;20499;-73
2023/06/03 00:45:57;;;;;;;5.27;3.37;;;13.40;92.70;;;;;;4965515;28;20188;-73
2023/06/03 00:48:23;;;;;;;6.60;3.37;;;13.40;92.90;;;;;;4966293;28;20475;-74
2023/06/03 00:50:49;;;;;;;4.40;2.67;;;13.40;93.00;;;;;;4965416;29;20243;-76
2023/06/03 00:53:15;;;;;;;5.47;2.90;;;13.50;92.80;;;;;;4964533;29;20201;-73
2023/06/03 00:55:41;;;;;;;5.60;3.43;;;13.40;92.80;;;;;;4963899;29;20196;-73
2023/06/03 00:58:07;;;;;;;4.50;3.00;;;13.50;93.50;;;;;;4964501;28;20437;-74
2023/06/03 01:00:35;;;;;;;5.43;3.70;;;13.50;94.00;;;;;;4965823;29;20237;-73
2023/06/03 01:03:01;;;;;;;5.67;3.40;;;13.40;94.80;;;;;;4964420;28;20434;-73
2023/06/03 01:05:27;;;;;;;7.33;3.57;;;13.40;95.50;;;;;;4963716;28;20428;-73
2023/06/03 01:08:20;;;;;;;6.80;3.23;;;13.30;95.90;;;;;;4965144;29;20730;-72
2023/06/03 01:11:04;;;;;;;7.20;3.30;;;13.30;95.90;;;;;;4966970;28;20440;-74
2023/06/03 01:13:42;;;;;;;5.17;2.87;;;13.20;96.20;;;;;;4963875;29;20432;-73
2023/06/03 01:16:09;;;;;;;8.73;3.87;;;13.20;96.20;;;;;;4965906;28;20748;-71
2023/06/03 01:18:36;;;;;;;7.73;4.10;;;13.10;96.40;;;;;;4965327;28;20423;-73
2023/06/03 01:21:03;;;;;;;8.17;3.87;;;13.10;96.60;;;;;;4965919;28;20447;-73
2023/06/03 01:23:33;;;;;;;5.27;3.27;;;13.10;96.80;;;;;;4964268;28;20706;-73
2023/06/03 01:26:00;;;;;;;5.20;3.30;;;13.10;97.00;;;;;;4969947;28;20434;-75
2023/06/03 01:28:28;;;;;;;4.00;2.77;;;13.00;97.10;;;;;;4956113;29;20468;-74
2023/06/03 01:30:55;;;;;;;8.30;3.37;;;13.00;97.30;;;;;;4967791;28;20427;-73
2023/06/03 01:33:23;;;;;;;8.17;4.03;;;13.00;97.70;;;;;;4965601;29;20419;-73
2023/06/03 01:35:52;;;;;;;7.77;3.77;;;13.00;98.10;;;;;;4965131;28;20417;-73
2023/06/03 01:38:18;;;;;;;7.70;3.30;;;13.00;98.10;;;;;;4965882;28;20426;-73
2023/06/03 01:40:45;;;;;;;5.47;3.07;;;13.00;97.90;;;;;;4965073;29;20457;-72
2023/06/03 01:43:11;;;;;;;7.30;3.50;;;13.00;97.90;;;;;;4962711;28;20432;-72
2023/06/03 01:45:37;;;;;;;7.47;3.10;;;13.00;98.10;;;;;;4963647;29;20407;-72
2023/06/03 01:48:04;;;;;;;10.60;3.70;;;13.00;98.00;;;;;;4964724;29;20625;-72
2023/06/03 01:50:29;;;;;;;8.63;3.40;;;13.10;97.50;;;;;;4970859;29;20455;-73
2023/06/03 01:52:55;;;;;;;6.77;3.30;;;13.20;97.00;;;;;;4969040;29;20427;-73
2023/06/03 01:55:21;;;;;;;4.97;2.83;;;13.20;96.80;;;;;;4968127;28;20695;-73
2023/06/03 01:57:47;;;;;;;4.90;2.73;;;13.10;96.90;;;;;;4961541;28;20254;-72
2023/06/03 02:00:15;;;;;;;7.20;4.20;;;13.00;97.50;;;;;;4963637;29;20507;-71
2023/06/03 02:02:42;;;;;;;5.17;3.80;;;13.00;97.90;;;;;;4963453;28;20490;-72
2023/06/03 02:05:09;;;;;;;5.73;3.17;;;13.00;98.10;;;;;;4962695;28;20422;-72
2023/06/03 02:07:35;;;;;;;4.27;2.90;;;13.00;97.70;;;;;;4982264;28;20500;-73
2023/06/03 02:10:01;;;;;;;7.07;3.27;;;12.90;97.80;;;;;;4975678;28;20826;-71
2023/06/03 02:12:26;;;;;;;5.90;3.70;;;12.90;98.40;;;;;;4962030;29;20185;-76
2023/06/03 02:14:56;;;;;;;5.23;3.70;;;12.80;98.90;;;;;;4963491;29;20192;-72
2023/06/03 02:17:26;;;;;;;5.33;3.10;;;12.80;99.10;;;;;;4962661;29;20220;-73
2023/06/03 02:19:53;;;;;;;7.60;4.00;;;12.70;99.20;;;;;;4962907;29;20451;-74
2023/06/03 02:22:20;;;;;;;7.20;3.80;;;12.70;99.40;;;;;;4964972;28;20843;-72
2023/06/03 02:24:46;;;;;;;5.10;3.60;;;12.70;99.60;;;;;;4945928;29;20455;-72
2023/06/03 02:27:14;;;;;;;9.30;3.20;;;12.70;99.70;;;;;;4962240;28;20255;-73
2023/06/03 02:29:42;;;;;;;5.47;3.30;;;12.60;99.90;;;;;;4961485;29;20480;-73
2023/06/03 02:32:08;;;;;;;6.53;3.23;;;12.50;99.90;;;;;;4960829;29;20420;-73
2023/06/03 02:34:34;;;;;;;7.50;3.53;;;12.50;99.90;;;;;;4961315;29;20416;-75
2023/06/03 02:37:00;;;;;;;6.23;3.27;;;12.50;99.90;;;;;;4961034;29;20422;-73
2023/06/03 02:39:25;;;;;;;5.17;3.90;;;12.50;99.90;;;;;;4961662;28;20209;-72
2023/06/03 02:41:51;;;;;;;6.03;3.27;;;12.50;99.90;;;;;;4961757;28;20197;-73
2023/06/03 02:44:18;;;;;;;5.13;2.87;;;12.50;99.90;;;;;;4962529;29;20469;-73
2023/06/03 02:46:44;;;;;;;6.23;3.67;;;12.40;99.90;;;;;;4961528;28;20827;-73
2023/06/03 02:49:12;;;;;;;3.87;2.90;;;12.40;99.90;;;;;;4977738;28;20448;-73
2023/06/03 02:51:40;;;;;;;5.13;3.00;;;12.30;99.90;;;;;;4961949;28;20179;-73
2023/06/03 02:54:05;;;;;;;5.33;2.47;;;12.30;99.90;;;;;;4961217;29;20453;-72
2023/06/03 02:56:31;;;;;;;5.40;3.60;;;12.30;99.90;;;;;;4961512;28;20502;-73
2023/06/03 02:58:57;;;;;;;4.60;2.93;;;12.30;99.70;;;;;;4960273;29;20217;-73
2023/06/03 03:01:23;;;;;;;8.60;3.30;;;12.30;98.70;;;;;;4961460;28;20884;-71
2023/06/03 03:03:49;;;;;;;5.90;2.50;;;12.40;97.50;;;;;;4961269;28;20178;-72
2023/06/03 03:06:19;;;;;;;6.67;3.40;;;12.40;97.10;;;;;;4961114;28;20996;-72
2023/06/03 03:08:50;;;;;;;5.90;3.03;;;12.40;96.00;;;;;;4960909;29;20233;-76
2023/06/03 03:11:17;;;;;;;4.67;3.23;;;12.50;94.70;;;;;;4959946;29;20953;-72
2023/06/03 03:13:45;;;;;;;4.77;2.30;;;12.50;93.70;;;;;;4965977;28;20426;-73
2023/06/03 03:16:12;;;;;;;5.57;2.60;;;12.60;92.70;;;;;;4960504;28;20922;-72
2023/06/03 03:18:40;;;;;;;9.03;2.87;;;12.60;92.30;;;;;;4946489;29;20425;-73
2023/06/03 03:21:08;;;;;;;4.63;2.70;;;12.60;92.00;;;;;;4962137;28;20428;-73
2023/06/03 03:23:33;;;;;;;6.90;2.90;;;12.60;91.40;;;;;;4975375;28;20437;-72
2023/06/03 03:26:01;;;;;;;4.00;2.90;;;12.60;91.40;;;;;;4960963;29;20169;-73
2023/06/03 03:28:29;;;;;;;7.03;2.80;;;12.60;90.20;;;;;;4960512;29;20480;-72
2023/06/03 03:30:59;;;;;;;5.80;2.17;;;12.50;90.60;;;;;;4970321;28;20444;-71
2023/06/03 03:33:25;;;;;;;7.37;2.90;;;12.50;90.80;;;;;;4970262;29;20420;-73
2023/06/03 03:35:52;;;;;;;4.30;2.67;;;12.60;88.40;;;;;;4963454;28;20912;-73
2023/06/03 03:38:20;;;;;;;2.87;2.10;;;12.60;86.00;;;;;;4960773;29;20188;-72
2023/06/03 03:40:45;;;;;;;6.80;2.33;;;12.60;86.10;;;;;;4960717;29;20736;-72
2023/06/03 03:43:17;;;;;;;4.07;2.83;;;12.60;83.50;;;;;;4961939;28;20280;-72
2023/06/03 03:45:44;;;;;;;5.30;2.10;;;12.50;83.10;;;;;;4961026;29;20181;-71
2023/06/03 03:48:16;;;;;;;4.37;2.40;;;12.60;81.40;;;;;;4959423;29;20738;-73
2023/06/03 03:50:50;;;;;;;4.67;2.53;;;12.60;80.20;;;;;;4960270;28;20516;-72
2023/06/03 03:53:29;;;;;;;4.27;1.90;;;12.60;79.90;;;;;;4964489;29;20416;-72
2023/06/03 03:55:57;;;;;;;6.23;2.50;;;12.70;76.90;;;;;;4958647;29;20423;-71
2023/06/03 03:58:36;;;;;;;4.20;2.50;;;12.70;74.50;;;;;;4958250;28;20433;-71
2023/06/03 04:01:12;;;;;;;2.73;2.00;;;12.70;73.30;;;;;;4956273;29;20405;-72
2023/06/03 04:03:40;;;;;;;3.87;2.17;;;12.80;73.00;;;;;;4949763;29;20425;-72
2023/06/03 04:06:09;;;;;;;4.40;1.93;;;12.70;73.80;;;;;;4959224;28;20468;-72
2023/06/03 04:08:45;;;;;;;3.77;2.27;;;12.70;74.70;;;;;;4961841;29;20450;-72
2023/06/03 04:11:26;;;;;;;7.53;2.20;;;12.70;73.40;;;;;;4962105;28;20414;-73
2023/06/03 04:13:53;;;;;;;9.10;1.93;;;12.70;71.50;;;;;;4963074;29;20428;-72
2023/06/03 04:16:57;;;;;;;3.37;2.00;;;12.70;71.10;;;;;;4962890;28;20683;-72
2023/06/03 04:19:42;;;;;;;4.03;1.80;;;12.90;67.20;;;;;;4965063;28;20464;-73
2023/06/03 04:22:18;;;;;;;3.90;2.00;;;13.00;63.70;;;;;;4962457;29;20701;-71
2023/06/03 04:24:43;;;;;;;3.47;2.00;;;13.00;62.60;;;;;;4962380;29;20412;-73
2023/06/03 04:27:09;;;;;;;4.83;2.03;;;13.10;62.40;;;;;;4962891;29;20443;-71
2023/06/03 04:29:36;;;;;;;4.80;2.10;;;13.10;61.60;;;;;;4961214;29;20202;-71
2023/06/03 04:32:02;;;;;;;4.87;2.00;;;13.10;60.40;;;;;;4979641;28;20450;-72
2023/06/03 04:34:30;;;;;;;2.80;1.77;;;13.20;60.20;;;;;;4985042;28;20421;-72
2023/06/03 04:36:58;;;;;;;5.67;2.03;;;13.20;60.10;;;;;;4967602;28;20417;-73
2023/06/03 04:39:25;;;;;;;3.37;1.67;;;13.20;59.70;;;;;;4963281;28;20444;-72
2023/06/03 04:41:53;;;;;;;2.93;1.60;;;13.30;58.70;;;;;;4962652;28;20426;-72
2023/06/03 04:44:20;;;;;;;2.00;1.43;;;13.30;58.50;;;;;;4959240;29;20712;-73
2023/06/03 04:46:49;;;;;;;2.60;1.60;;;13.50;58.00;;;;;;4963564;28;20446;-73
2023/06/03 04:49:15;;;;;;;3.10;1.60;;;13.90;57.00;;;;;;4961574;29;20520;-72
2023/06/03 04:51:42;;;;;;;1.80;1.37;;;14.60;55.70;;;;;;4963383;28;20405;-72
2023/06/03 04:54:10;;;;;;;3.10;1.13;;;15.30;53.70;;;;;;4962897;29;20188;-72
2023/06/03 04:56:38;;;;;;;2.67;1.67;;;16.00;52.00;;;;;;4962032;29;20412;-72
2023/06/03 04:59:05;;;;;;;3.80;1.67;;;16.50;50.10;;;;;;4962228;28;20434;-72
2023/06/03 05:01:39;;;;;;;6.03;2.23;;;17.00;49.10;;;;;;4963590;29;20419;-71
2023/06/03 05:04:05;;;;;;;5.70;2.17;;;17.50;47.90;;;;;;4962430;29;20465;-73
2023/06/03 05:06:33;;;;;;;3.30;1.50;;;17.80;46.60;;;;;;4977784;28;20543;-72
2023/06/03 05:08:59;;;;;;;5.80;1.30;;;18.20;45.90;;;;;;4978281;28;20465;-72
2023/06/03 05:11:25;;;;;;;4.50;1.80;;;18.50;45.50;;;;;;4978262;28;20417;-70
2023/06/03 05:13:51;;;;;;;3.23;1.20;;;18.70;44.70;;;;;;4971265;28;20578;-73
2023/06/03 05:16:17;;;;;;;2.27;1.20;;;19.00;43.70;;;;;;4961610;29;20430;-72
2023/06/03 05:18:45;;;;;;;3.17;1.63;;;19.30;43.10;;;;;;4961384;28;20575;-73
2023/06/03 05:21:11;;;;;;;4.47;2.50;;;19.50;42.60;;;;;;4960325;29;20311;-72
2023/06/03 05:23:37;;;;;;;1.63;1.33;;;19.50;41.50;;;;;;4960245;29;20483;-72
2023/06/03 05:26:04;;;;;;;4.30;2.00;;;19.60;41.60;;;;;;4960962;29;20896;-72
2023/06/03 05:28:30;;;;;;;3.80;1.70;;;19.90;41.10;;;;;;4960122;28;20903;-73
2023/06/03 05:30:56;;;;;;;3.07;1.40;;;19.80;40.00;;;;;;4966239;28;20511;-72
2023/06/03 05:33:24;;;;;;;2.10;1.63;;;19.90;39.50;;;;;;4961657;28;20481;-73
2023/06/03 05:35:50;;;;;;;2.47;1.60;;;20.00;39.10;;;;;;4964624;29;20405;-72
2023/06/03 05:38:16;;;;;;;2.70;1.30;;;20.20;38.60;;;;;;4972998;29;20448;-72
2023/06/03 05:40:43;;;;;;;5.83;1.60;;;20.20;37.90;;;;;;4987066;28;20292;-72
2023/06/03 05:43:09;;;;;;;3.93;1.73;;;20.20;37.80;;;;;;4959652;29;21019;-73
2023/06/03 05:45:35;;;;;;;2.70;1.40;;;20.30;37.00;;;;;;4961191;29;20462;-72
2023/06/03 05:48:00;;;;;;;1.90;1.17;;;20.50;36.80;;;;;;4960915;29;20216;-72
2023/06/03 05:50:26;;;;;;;4.63;1.77;;;20.60;36.50;;;;;;4975742;28;20193;-72
2023/06/03 05:52:55;;;;;;;1.87;1.23;;;20.70;36.40;;;;;;4973814;28;20181;-72
2023/06/03 05:55:22;;;;;;;2.73;1.70;;;20.80;35.20;;;;;;4961055;29;20468;-73
2023/06/03 05:57:48;;;;;;;5.13;1.63;;;20.80;34.90;;;;;;4961087;29;20413;-76
2023/06/03 06:00:14;;;;;;;1.70;1.20;;;20.60;35.20;;;;;;4953994;29;21252;-73
2023/06/03 06:02:40;;;;;;;4.33;2.10;;;20.50;35.10;;;;;;4961377;28;20227;-73
2023/06/03 06:05:07;;;;;;;3.27;1.50;;;20.50;35.10;;;;;;4960463;28;20413;-74
2023/06/03 06:07:32;;;;;;;2.83;1.43;;;20.70;34.70;;;;;;4962069;28;20506;-73
2023/06/03 06:09:58;;;;;;;4.03;1.70;;;20.50;34.50;;;;;;4966258;28;20467;-74
2023/06/03 06:12:24;;;;;;;2.60;1.50;;;20.60;35.10;;;;;;4960186;29;20192;-72
2023/06/03 06:14:49;;;;;;;2.73;1.43;;;20.70;35.30;;;;;;4966593;28;20189;-73
2023/06/03 06:17:16;;;;;;;2.17;1.30;;;20.90;34.60;;;;;;4977354;28;20181;-72
2023/06/03 06:19:42;;;;;;;2.20;1.53;;;21.10;34.80;;;;;;4961450;29;20428;-73
2023/06/03 06:22:08;;;;;;;1.30;1.00;;;21.30;34.90;;;;;;4962244;29;20218;-73
2023/06/03 06:24:36;;;;;;;2.47;1.30;;;21.60;34.50;;;;;;4962244;29;20484;-73
2023/06/03 06:27:01;;;;;;;4.50;1.47;;;21.60;34.10;;;;;;4962859;28;20220;-74
2023/06/03 06:29:27;;;;;;;4.57;1.80;;;21.70;34.40;;;;;;4962138;28;20935;-74
2023/06/03 06:31:53;;;;;;;2.40;1.20;;;21.60;33.70;;;;;;4962657;28;20208;-74
2023/06/03 06:34:19;;;;;;;4.77;1.20;;;21.50;33.40;;;;;;4962370;28;20470;-74
2023/06/03 06:36:52;;;;;;;2.30;1.17;;;21.40;33.90;;;;;;4977322;28;20494;-73
2023/06/03 06:39:34;;;;;;;2.60;1.40;;;21.40;33.70;;;;;;4965764;28;20448;-74
2023/06/03 06:42:17;;;;;;;2.70;1.67;;;21.40;33.40;;;;;;4965350;28;20413;-74
2023/06/03 06:44:50;;;;;;;2.20;1.37;;;21.30;33.70;;;;;;4965169;28;20420;-74
2023/06/03 06:47:24;;;;;;;2.70;1.93;;;21.20;33.50;;;;;;4961625;29;20428;-73
2023/06/03 06:49:55;;;;;;;3.17;1.27;;;20.80;33.90;;;;;;4961281;29;20440;-75
2023/06/03 06:52:23;;;;;;;2.53;1.70;;;20.80;34.10;;;;;;4963483;29;20480;-72
2023/06/03 06:54:50;;;;;;;4.00;1.63;;;21.00;34.00;;;;;;4961503;29;20417;-74
2023/06/03 06:57:28;;;;;;;2.90;1.40;;;21.10;34.20;;;;;;4963693;29;20425;-73
2023/06/03 06:59:54;;;;;;;4.57;1.83;;;21.20;34.10;;;;;;4963389;29;20733;-76
2023/06/03 07:02:21;;;;;;;2.63;1.40;;;21.30;33.70;;;;;;4963398;29;20420;-73
2023/06/03 07:04:49;;;;;;;2.57;1.70;;;21.30;33.50;;;;;;4951263;29;20425;-74
2023/06/03 07:07:15;;;;;;;2.90;1.87;;;21.40;33.40;;;;;;4979047;28;20471;-75
2023/06/03 07:09:41;;;;;;;2.43;1.37;;;21.10;33.50;;;;;;4979577;28;20440;-74
2023/06/03 07:12:09;;;;;;;2.73;1.30;;;20.90;34.00;;;;;;4978253;28;20184;-75
2023/06/03 07:14:35;;;;;;;3.63;1.47;;;20.80;34.20;;;;;;4966269;28;20480;-74
2023/06/03 07:17:01;;;;;;;1.70;1.20;;;20.70;34.80;;;;;;4962723;29;20405;-73
2023/06/03 07:19:38;;;;;;;2.20;1.30;;;20.70;35.00;;;;;;4947221;29;20520;-73
2023/06/03 07:22:06;;;;;;;2.30;1.43;;;20.80;35.20;;;;;;4950620;29;20420;-73
2023/06/03 07:24:34;;;;;;;1.70;1.20;;;20.90;35.00;;;;;;4968273;28;20399;-73
2023/06/03 07:27:01;;;;;;;3.53;1.40;;;20.90;34.90;;;;;;4967794;28;20409;-73
2023/06/03 07:29:34;;;;;;;2.30;1.27;;;20.80;34.90;;;;;;4952020;29;20524;-73
2023/06/03 07:32:01;;;;;;;2.00;1.17;;;20.70;35.20;;;;;;4964388;29;20185;-73
2023/06/03 07:34:27;;;;;;;2.13;1.50;;;20.60;35.60;;;;;;4969244;28;20860;-73
2023/06/03 07:36:58;;;;;;;3.73;1.40;;;20.30;36.00;;;;;;4966003;28;20492;-74
2023/06/03 07:39:25;;;;;;;6.00;1.77;;;20.00;36.40;;;;;;4981013;28;20449;-74
2023/06/03 07:41:55;;;;;;;3.90;1.70;;;19.60;36.90;;;;;;4972895;28;20389;-75
2023/06/03 07:44:41;;;;;;;2.03;1.00;;;19.40;37.60;;;;;;4964872;29;20604;-75
2023/06/03 07:47:08;;;;;;;6.30;1.80;;;19.30;37.90;;;;;;4985922;28;20801;-73
2023/06/03 07:49:34;;;;;;;3.40;1.70;;;19.30;37.80;;;;;;4968115;28;20500;-76
2023/06/03 07:52:00;;;;;;;2.80;1.40;;;19.30;38.10;;;;;;4968596;29;20488;-76
2023/06/03 07:54:28;;;;;;;1.90;1.40;;;19.30;37.80;;;;;;4968594;29;20708;-76
2023/06/03 07:56:56;;;;;;;2.60;1.67;;;19.20;38.20;;;;;;4971507;29;20192;-74
2023/06/03 07:59:24;;;;;;;5.70;1.50;;;19.20;38.60;;;;;;4958042;29;20474;-74
2023/06/03 08:01:51;;;;;;;2.13;1.30;;;19.20;38.70;;;;;;4955711;29;20904;-77
2023/06/03 08:04:19;;;;;;;6.70;1.83;;;19.20;39.60;;;;;;4971876;28;20413;-75
2023/06/03 08:06:46;;;;;;;3.17;1.33;;;19.30;38.70;;;;;;4970223;28;20463;-74
2023/06/03 08:09:25;;;;;;;4.17;1.80;;;19.30;38.70;;;;;;4970935;28;20480;-73
2023/06/03 08:11:51;;;;;;;2.53;1.60;;;19.40;38.90;;;;;;4970114;28;20404;-75
2023/06/03 08:14:19;;;;;;;2.00;1.60;;;19.40;38.70;;;;;;4969545;28;20428;-74
2023/06/03 08:16:45;;;;;;;3.33;1.40;;;19.40;38.80;;;;;;4970206;28;20188;-73
2023/06/03 08:19:11;;;;;;;5.47;1.90;;;19.50;38.50;;;;;;4968956;28;20433;-74
2023/06/03 08:21:37;;;;;;;3.07;1.90;;;19.50;38.70;;;;;;4970943;28;20204;-74
2023/06/03 08:24:03;;;;;;;4.60;1.80;;;19.60;38.90;;;;;;4953714;29;20445;-76
2023/06/03 08:26:29;;;;;;;3.63;2.07;;;19.60;38.50;;;;;;4976806;28;20429;-74
2023/06/03 08:28:55;;;;;;;6.07;1.70;;;19.60;38.60;;;;;;4966393;28;20529;-73
2023/06/03 08:31:20;;;;;;;6.17;1.67;;;19.70;38.50;;;;;;4967695;29;20182;-73
2023/06/03 08:33:46;;;;;;;2.70;1.63;;;19.70;38.50;;;;;;4951600;29;20209;-75
2023/06/03 08:36:12;;;;;;;3.97;1.60;;;19.80;38.80;;;;;;4969726;29;20185;-75
2023/06/03 08:38:41;;;;;;;2.43;1.37;;;19.80;38.70;;;;;;4946108;29;20430;-74
2023/06/03 08:41:07;;;;;;;2.83;1.70;;;19.80;38.70;;;;;;4965768;28;20470;-75
2023/06/03 08:44:04;;;;;;;2.30;1.50;;;20.00;38.80;;;;;;4958964;28;20524;-75
2023/06/03 08:46:55;;;;;;;2.40;1.33;;;20.10;38.50;;;;;;4935603;29;20425;-75
2023/06/03 08:49:28;;;;;;;4.03;1.70;;;20.20;38.60;;;;;;4970434;28;20484;-75
2023/06/03 08:51:56;;;;;;;5.07;1.67;;;20.30;38.70;;;;;;4989523;28;20415;-75
2023/06/03 08:54:29;;;;;;;2.70;1.70;;;20.40;38.50;;;;;;4987434;28;20423;-75
2023/06/03 08:57:02;;;;;;;4.37;1.40;;;20.50;38.40;;;;;;4968911;28;20432;-75
2023/06/03 08:59:29;;;;;;;5.20;2.00;;;20.50;38.30;;;;;;4970384;28;20461;-77
2023/06/03 09:01:56;;;;;;;4.43;2.20;;;20.70;38.40;;;;;;4986576;28;20722;-77
2023/06/03 09:04:24;;;;;;;4.53;2.30;;;20.70;38.30;;;;;;4970150;29;20417;-75
2023/06/03 09:06:51;;;;;;;3.70;1.90;;;20.70;38.30;;;;;;4969561;28;20463;-76
2023/06/03 09:09:18;;;;;;;3.20;1.97;;;20.70;38.20;;;;;;4969903;29;20771;-75
2023/06/03 09:11:47;;;;;;;3.80;2.10;;;20.80;38.10;;;;;;4971248;28;20413;-75
2023/06/03 09:14:15;;;;;;;3.70;1.90;;;20.90;38.00;;;;;;4953180;29;20428;-74
2023/06/03 09:16:41;;;;;;;3.67;2.70;;;20.90;37.90;;;;;;4967713;29;20417;-79
2023/06/03 09:19:07;;;;;;;4.53;2.27;;;21.00;38.00;;;;;;4969400;28;20465;-77
2023/06/03 09:21:33;;;;;;;3.80;2.03;;;21.10;37.80;;;;;;4954345;29;20429;-75
2023/06/03 09:23:59;;;;;;;5.23;2.70;;;21.00;37.00;;;;;;4985143;28;20515;-77
2023/06/03 09:26:25;;;;;;;2.80;2.13;;;21.10;37.10;;;;;;4968840;29;20212;-77
2023/06/03 09:28:51;;;;;;;3.50;1.90;;;21.00;37.00;;;;;;4970330;29;20538;-74
2023/06/03 09:31:18;;;;;;;2.90;1.93;;;21.00;36.80;;;;;;4967185;29;20400;-76
2023/06/03 09:33:46;;;;;;;2.53;1.77;;;21.10;37.30;;;;;;4969367;29;20192;-77
2023/06/03 09:36:13;;;;;;;4.47;2.10;;;21.10;37.10;;;;;;4971363;28;20436;-76
2023/06/03 09:38:55;;;;;;;2.53;2.00;;;21.10;36.50;;;;;;4970289;29;20840;-77
2023/06/03 09:41:27;;;;;;;4.73;2.23;;;21.20;36.20;;;;;;4972106;29;20417;-78
2023/06/03 09:43:54;;;;;;;4.30;2.90;;;21.30;36.00;;;;;;4973163;28;20480;-79
2023/06/03 09:46:20;;;;;;;5.03;2.53;;;21.20;36.20;;;;;;4976469;29;20415;-78
2023/06/03 09:48:46;;;;;;;3.30;2.60;;;21.10;36.40;;;;;;4974343;29;20476;-77
2023/06/03 09:51:11;;;;;;;6.43;2.27;;;21.20;36.90;;;;;;4970307;29;20409;-75
2023/06/03 09:53:37;;;;;;;3.17;2.00;;;21.30;36.60;;;;;;4972731;29;20185;-76
2023/06/03 09:56:28;;;;;;;3.63;2.63;;;21.40;36.30;;;;;;4970905;29;20171;-77
2023/06/03 09:59:20;;;;;;;7.20;2.50;;;21.40;36.00;;;;;;4968310;28;20388;-77
2023/06/03 10:01:47;;;;;;;3.50;2.07;;;21.50;36.10;;;;;;4970705;28;20424;-77
2023/06/03 10:04:20;;;;;;;6.70;2.60;;;21.50;35.60;;;;;;4967672;28;20460;-77
2023/06/03 10:06:47;;;;;;;3.23;1.77;;;21.30;35.70;;;;;;4970562;28;20593;-76
2023/06/03 10:09:20;;;;;;;3.67;2.50;;;21.40;35.80;;;;;;4968361;29;20461;-77
2023/06/03 10:11:52;;;;;;;3.13;2.47;;;21.40;35.80;;;;;;4969260;28;20411;-75
2023/06/03 10:14:25;;;;;;;4.77;2.70;;;21.40;35.60;;;;;;4970207;28;20413;-77
2023/06/03 10:17:10;;;;;;;2.80;1.93;;;21.50;35.80;;;;;;4969541;29;20417;-76
2023/06/03 10:19:38;;;;;;;3.77;2.00;;;21.60;35.10;;;;;;4972215;29;20448;-76
2023/06/03 10:22:05;;;;;;;4.10;1.87;;;21.60;35.20;;;;;;4970583;29;20456;-77
2023/06/03 10:24:33;;;;;;;4.50;2.70;;;21.60;35.50;;;;;;4970272;29;20439;-75
2023/06/03 10:27:00;;;;;;;6.40;2.37;;;21.70;35.30;;;;;;4969162;28;20686;-76
2023/06/03 10:29:26;;;;;;;4.10;1.90;;;21.80;35.10;;;;;;4966699;29;20483;-75
2023/06/03 10:31:53;;;;;;;2.60;2.20;;;21.90;34.70;;;;;;4969939;29;20409;-77
2023/06/03 10:34:20;;;;;;;4.03;2.60;;;21.90;34.60;;;;;;4968638;29;20419;-78
2023/06/03 10:36:56;;;;;;;7.13;2.63;;;21.90;35.20;;;;;;4972644;29;20405;-78
2023/06/03 10:39:25;;;;;;;3.57;1.63;;;21.90;34.50;;;;;;4972015;28;20432;-78
2023/06/03 10:41:57;;;;;;;3.97;2.47;;;21.90;34.50;;;;;;4971354;28;20409;-78
2023/06/03 10:44:23;;;;;;;7.37;3.07;;;21.80;34.40;;;;;;4967638;29;20429;-77
2023/06/03 10:46:58;;;;;;;9.23;3.30;;;21.80;34.30;;;;;;4979471;28;20428;-78
2023/06/03 10:49:28;;;;;;;3.80;2.60;;;21.90;34.40;;;;;;4968942;29;20759;-78
2023/06/03 10:52:10;;;;;;;3.33;2.80;;;21.90;34.30;;;;;;4969550;28;20420;-78
2023/06/03 10:55:01;;;;;;;3.77;2.63;;;21.90;34.40;;;;;;4972771;28;20422;-78
2023/06/03 10:57:36;;;;;;;4.07;2.40;;;22.00;34.50;;;;;;4972454;29;20432;-77
2023/06/03 11:00:04;;;;;;;3.50;2.20;;;22.00;34.20;;;;;;4955326;29;20468;-77
2023/06/03 11:03:03;;;;;;;3.53;2.13;;;22.00;34.40;;;;;;4971145;29;20428;-76
2023/06/03 11:05:28;;;;;;;5.33;2.17;;;21.90;34.40;;;;;;4973780;28;20536;-80
2023/06/03 11:07:54;;;;;;;5.03;2.23;;;21.90;34.70;;;;;;4989938;28;20449;-79
2023/06/03 11:10:43;;;;;;;3.70;2.37;;;22.00;34.60;;;;;;4957096;29;20212;-77
2023/06/03 11:13:11;;;;;;;7.23;2.60;;;22.10;34.10;;;;;;4960173;29;20421;-75
2023/06/03 11:15:59;;;;;;;3.03;2.00;;;22.20;33.80;;;;;;4971531;28;20413;-77
2023/06/03 11:18:25;;;;;;;3.20;1.90;;;22.30;34.10;;;;;;4973153;29;20416;-77
2023/06/03 11:20:51;;;;;;;6.63;2.03;;;22.30;33.90;;;;;;4958398;29;20417;-74
2023/06/03 11:23:43;;;;;;;4.83;2.03;;;22.40;33.90;;;;;;4975258;29;20197;-78
2023/06/03 11:26:34;;;;;;;4.80;2.80;;;22.60;33.70;;;;;;4978672;28;20668;-78
2023/06/03 11:29:02;;;;;;;5.07;2.90;;;22.60;33.40;;;;;;4969307;28;20484;-79
2023/06/03 11:31:29;;;;;;;5.17;2.27;;;22.50;33.70;;;;;;4955379;29;20489;-79
2023/06/03 11:34:21;;;;;;;3.40;2.20;;;22.60;33.70;;;;;;4924448;29;20512;-78
2023/06/03 11:36:54;;;;;;;5.57;2.63;;;22.60;33.80;;;;;;4937629;29;20426;-78
2023/06/03 11:39:21;;;;;;;7.77;2.00;;;22.60;33.60;;;;;;4924702;29;20433;-78
2023/06/03 11:42:10;;;;;;;2.80;2.00;;;22.70;33.80;;;;;;4939073;29;20386;-79
2023/06/03 11:44:40;;;;;;;3.90;2.60;;;22.80;33.70;;;;;;4933513;29;20385;-78
2023/06/03 11:47:06;;;;;;;4.63;2.53;;;22.90;33.20;;;;;;4953966;29;20437;-78
2023/06/03 11:49:34;;;;;;;4.10;2.57;;;22.90;33.10;;;;;;4954462;29;20464;-79
2023/06/03 11:52:01;;;;;;;2.60;2.40;;;22.90;32.90;;;;;;4924519;29;20510;-77
2023/06/03 11:54:27;;;;;;;4.97;2.60;;;22.90;33.00;;;;;;4942625;29;20449;-77
2023/06/03 11:56:58;;;;;;;4.60;3.40;;;22.90;32.70;;;;;;4937003;29;20402;-77
2023/06/03 11:59:31;;;;;;;6.60;3.00;;;22.80;33.00;;;;;;4959357;29;20228;-78
2023/06/03 12:01:59;;;;;;;5.03;2.73;;;22.70;33.30;;;;;;4958991;29;20436;-76
2023/06/03 12:04:25;;;;;;;6.93;2.57;;;22.60;33.30;;;;;;4940873;29;20412;-75
2023/06/03 12:06:52;;;;;;;2.70;2.47;;;22.60;33.40;;;;;;4941964;29;20480;-78
2023/06/03 12:09:22;;;;;;;3.40;2.30;;;22.60;33.40;;;;;;4974362;29;20460;-78
2023/06/03 12:11:49;;;;;;;5.50;2.97;;;22.80;33.20;;;;;;4974586;29;20432;-78
2023/06/03 12:14:34;;;;;;;4.70;2.70;;;22.80;32.80;;;;;;4943408;29;20411;-77
2023/06/03 12:17:13;;;;;;;3.57;2.63;;;22.80;32.40;;;;;;4958936;29;20436;-77
2023/06/03 12:19:47;;;;;;;3.70;2.00;;;22.80;32.60;;;;;;4972784;29;20444;-78
2023/06/03 12:22:13;;;;;;;3.70;2.60;;;22.80;33.30;;;;;;4977148;29;20499;-79
2023/06/03 12:24:42;;;;;;;5.10;2.30;;;22.80;33.40;;;;;;4973182;29;20405;-78
2023/06/03 12:27:11;;;;;;;2.23;1.70;;;22.80;33.50;;;;;;4978408;28;20408;-79
2023/06/03 12:29:45;;;;;;;8.37;2.87;;;22.80;32.40;;;;;;4963971;28;20494;-79
2023/06/03 12:32:11;;;;;;;2.83;2.17;;;22.90;33.00;;;;;;4955566;29;20428;-77
2023/06/03 12:34:38;;;;;;;2.73;2.30;;;23.00;33.00;;;;;;4974262;28;20413;-78
2023/06/03 12:37:09;;;;;;;5.13;2.17;;;23.10;33.50;;;;;;4974734;29;20449;-79
2023/06/03 12:39:45;;;;;;;6.50;2.37;;;23.10;33.00;;;;;;4959357;29;20448;-78
2023/06/03 12:42:11;;;;;;;5.83;2.90;;;23.10;32.80;;;;;;4975212;28;20423;-78
2023/06/03 12:44:52;;;;;;;3.60;2.33;;;23.10;32.70;;;;;;4975256;29;20663;-79
2023/06/03 12:47:20;;;;;;;3.07;2.07;;;23.20;32.50;;;;;;4975237;28;20423;-78
2023/06/03 12:50:07;;;;;;;6.93;3.67;;;23.20;32.50;;;;;;4974188;28;20452;-77
2023/06/03 12:52:38;;;;;;;4.80;2.50;;;23.10;32.60;;;;;;4973896;29;20409;-77
2023/06/03 12:55:07;;;;;;;5.37;2.30;;;23.20;32.20;;;;;;4976238;29;20421;-76
2023/06/03 12:57:40;;;;;;;4.07;2.40;;;23.20;31.90;;;;;;4974616;29;20383;-76